Time;durP1;ratioP1;P1;durP2;ratioP2;P2;SDS_P1;SDS_P2;PMS_P1;PMS_P2;Temp;Humidity;BMP_temperature;BMP_pressure;BME280_temperature;BME280_humidity;BME280_pressure;Samples;Min_cycle;Max_cycle;Signal;HPM_P1;HPM_P2
2024/03/06 00:02:23;;;;;;;3.78;1.70;;;10.70;99.90;;;;;;5003764;28;20038;-78
2024/03/06 00:04:48;;;;;;;3.45;1.83;;;10.70;99.90;;;;;;5003099;28;20038;-78
2024/03/06 00:07:14;;;;;;;5.30;2.30;;;10.70;99.90;;;;;;5006591;28;20451;-78
2024/03/06 00:09:40;;;;;;;4.47;1.70;;;10.60;99.90;;;;;;5001649;28;20515;-78
2024/03/06 00:12:06;;;;;;;2.28;2.08;;;10.60;99.90;;;;;;5004750;28;20219;-78
2024/03/06 00:14:32;;;;;;;4.03;1.80;;;10.60;99.90;;;;;;5005049;28;20026;-78
2024/03/06 00:16:57;;;;;;;3.53;1.90;;;10.70;99.90;;;;;;5001662;28;20378;-78
2024/03/06 00:19:23;;;;;;;3.53;1.50;;;10.70;99.90;;;;;;5002262;28;20107;-78
2024/03/06 00:21:49;;;;;;;1.25;1.20;;;10.70;99.90;;;;;;5005005;28;20517;-78
2024/03/06 00:24:15;;;;;;;3.08;1.42;;;10.80;99.90;;;;;;5000618;28;20034;-78
2024/03/06 00:26:41;;;;;;;1.58;1.40;;;10.80;99.90;;;;;;5001526;28;20376;-78
2024/03/06 00:29:08;;;;;;;1.63;1.35;;;10.80;99.90;;;;;;5003271;28;20026;-78
2024/03/06 00:31:34;;;;;;;4.47;1.80;;;10.80;99.90;;;;;;5004028;28;20033;-78
2024/03/06 00:33:59;;;;;;;1.83;1.73;;;10.80;99.90;;;;;;5001621;28;20030;-78
2024/03/06 00:36:25;;;;;;;2.55;1.55;;;10.80;99.90;;;;;;5002444;28;20109;-78
2024/03/06 00:38:51;;;;;;;3.42;1.83;;;10.80;99.90;;;;;;5005512;28;20022;-78
2024/03/06 00:41:16;;;;;;;2.47;1.80;;;10.80;99.90;;;;;;5003310;28;20399;-78
2024/03/06 00:43:42;;;;;;;3.10;1.52;;;10.80;99.90;;;;;;5000807;28;20026;-78
2024/03/06 00:46:08;;;;;;;2.03;1.38;;;10.80;99.90;;;;;;5004070;28;20462;-78
2024/03/06 00:48:33;;;;;;;3.53;1.38;;;10.80;99.90;;;;;;5000928;28;20030;-78
2024/03/06 00:50:59;;;;;;;2.85;1.60;;;10.80;99.90;;;;;;5004190;28;20443;-78
2024/03/06 00:53:25;;;;;;;2.22;1.45;;;10.80;99.90;;;;;;5018741;28;20049;-78
2024/03/06 00:55:50;;;;;;;1.90;1.35;;;10.80;99.90;;;;;;4999253;28;20508;-78
2024/03/06 00:58:16;;;;;;;1.75;1.30;;;10.80;99.90;;;;;;5002091;28;20031;-78
2024/03/06 01:00:42;;;;;;;2.83;1.60;;;10.70;99.90;;;;;;5004494;28;20022;-78
2024/03/06 01:03:07;;;;;;;2.22;1.20;;;10.70;99.90;;;;;;5019850;28;20022;-78
2024/03/06 01:05:33;;;;;;;2.45;1.65;;;10.70;99.90;;;;;;5003591;28;20036;-78
2024/03/06 01:08:01;;;;;;;3.40;1.60;;;10.70;99.90;;;;;;5002283;28;20037;-78
2024/03/06 01:10:27;;;;;;;2.35;1.40;;;10.70;99.90;;;;;;5001660;28;20401;-78
2024/03/06 01:12:53;;;;;;;1.65;1.40;;;10.70;99.90;;;;;;5000499;28;20026;-78
2024/03/06 01:15:18;;;;;;;2.97;1.42;;;10.70;99.90;;;;;;5004370;28;20038;-78
2024/03/06 01:17:44;;;;;;;1.60;1.50;;;10.60;99.90;;;;;;5000758;28;20018;-78
2024/03/06 01:20:10;;;;;;;5.22;1.90;;;10.60;99.90;;;;;;5011471;28;20021;-78
2024/03/06 01:22:36;;;;;;;4.75;2.40;;;10.60;99.90;;;;;;5013581;28;20037;-78
2024/03/06 01:25:01;;;;;;;3.80;2.00;;;10.60;99.90;;;;;;5000368;28;20031;-78
2024/03/06 01:27:28;;;;;;;5.68;2.30;;;10.70;99.90;;;;;;5003649;28;20026;-78
2024/03/06 01:29:53;;;;;;;4.78;2.40;;;10.60;99.90;;;;;;5000536;28;20027;-78
2024/03/06 01:32:19;;;;;;;6.78;2.53;;;10.60;99.90;;;;;;5003218;28;20558;-78
2024/03/06 01:34:45;;;;;;;2.15;1.85;;;10.70;99.90;;;;;;5002003;28;20105;-78
2024/03/06 01:37:11;;;;;;;3.78;1.80;;;10.60;99.90;;;;;;5000701;28;20527;-78
2024/03/06 01:39:37;;;;;;;2.65;1.65;;;10.60;99.90;;;;;;5001047;28;20022;-78
2024/03/06 01:42:03;;;;;;;4.22;2.00;;;10.60;99.90;;;;;;4998906;28;20026;-78
2024/03/06 01:44:29;;;;;;;4.13;2.25;;;10.60;99.90;;;;;;4997216;28;20388;-78
2024/03/06 01:46:55;;;;;;;3.88;2.47;;;10.60;99.90;;;;;;5004918;28;20030;-78
2024/03/06 01:49:22;;;;;;;3.42;2.47;;;10.60;99.90;;;;;;5003860;28;20045;-78
2024/03/06 01:51:53;;;;;;;9.55;2.60;;;10.60;99.90;;;;;;4999526;28;20026;-78
2024/03/06 01:54:20;;;;;;;2.33;2.08;;;10.60;99.90;;;;;;5004662;28;20397;-78
2024/03/06 01:56:48;;;;;;;5.55;2.47;;;10.60;99.90;;;;;;5000523;28;20427;-78
2024/03/06 01:59:16;;;;;;;6.05;2.90;;;10.60;99.90;;;;;;4999308;28;20150;-78
2024/03/06 02:01:43;;;;;;;6.40;3.30;;;10.50;99.90;;;;;;5015587;28;20026;-78
2024/03/06 02:04:12;;;;;;;8.02;4.75;;;10.50;99.90;;;;;;4998549;28;20117;-78
2024/03/06 02:06:41;;;;;;;9.85;5.35;;;10.60;99.90;;;;;;5001806;28;20027;-78
2024/03/06 02:09:09;;;;;;;7.63;5.65;;;10.60;99.90;;;;;;5004855;28;20490;-78
2024/03/06 02:11:36;;;;;;;8.02;3.63;;;10.70;99.90;;;;;;5003674;28;20033;-78
2024/03/06 02:14:03;;;;;;;6.03;4.95;;;10.70;99.90;;;;;;4996568;28;20030;-78
2024/03/06 02:16:29;;;;;;;7.28;5.70;;;10.70;99.90;;;;;;5005876;28;20392;-78
2024/03/06 02:18:56;;;;;;;9.07;5.28;;;10.70;99.90;;;;;;5001016;28;20023;-78
2024/03/06 02:21:24;;;;;;;8.25;5.05;;;10.70;99.90;;;;;;4999048;28;20114;-78
2024/03/06 02:23:59;;;;;;;7.70;5.57;;;10.70;99.90;;;;;;5002965;28;20390;-78
2024/03/06 02:26:25;;;;;;;8.80;5.45;;;10.70;99.90;;;;;;5000101;28;20108;-78
2024/03/06 02:28:52;;;;;;;9.65;7.30;;;10.70;99.90;;;;;;5002841;28;20091;-78
2024/03/06 02:31:19;;;;;;;12.05;7.95;;;10.70;99.90;;;;;;5004131;28;20061;-78
2024/03/06 02:33:48;;;;;;;11.95;7.43;;;10.70;99.90;;;;;;5006439;28;20022;-78
2024/03/06 02:36:14;;;;;;;13.63;7.63;;;10.70;99.90;;;;;;4997974;28;20432;-78
2024/03/06 02:38:40;;;;;;;12.20;7.28;;;10.70;99.90;;;;;;4999627;28;20048;-78
2024/03/06 02:41:06;;;;;;;11.95;5.25;;;10.70;99.90;;;;;;4999861;28;20563;-78
2024/03/06 02:43:33;;;;;;;10.18;6.00;;;10.70;99.90;;;;;;5003212;28;20049;-78
2024/03/06 02:45:59;;;;;;;10.30;7.18;;;10.70;99.90;;;;;;4998216;28;20018;-78
2024/03/06 02:48:25;;;;;;;13.15;7.68;;;10.60;99.90;;;;;;5003212;28;20022;-78
2024/03/06 02:50:54;;;;;;;11.55;7.55;;;10.60;99.90;;;;;;5002240;28;20380;-78
2024/03/06 02:53:20;;;;;;;13.27;8.18;;;10.60;99.90;;;;;;5005919;28;20026;-78
2024/03/06 02:55:45;;;;;;;14.80;8.25;;;10.60;99.90;;;;;;5022475;28;20383;-78
2024/03/06 02:58:11;;;;;;;11.85;7.70;;;10.60;99.90;;;;;;5011793;28;20022;-78
2024/03/06 03:00:39;;;;;;;11.18;7.80;;;10.60;99.90;;;;;;5007112;28;20037;-78
2024/03/06 03:03:04;;;;;;;9.40;6.88;;;10.50;99.90;;;;;;5005922;28;20476;-78
2024/03/06 03:05:30;;;;;;;7.82;6.30;;;10.50;99.90;;;;;;5009403;28;20036;-78
2024/03/06 03:07:56;;;;;;;11.80;6.50;;;10.50;99.90;;;;;;5009872;28;20033;-78
2024/03/06 03:10:24;;;;;;;8.75;6.68;;;10.50;99.90;;;;;;5007435;28;20045;-78
2024/03/06 03:12:51;;;;;;;9.40;6.38;;;10.40;99.90;;;;;;5008546;28;20539;-78
2024/03/06 03:15:16;;;;;;;10.32;6.60;;;10.50;99.90;;;;;;5009553;28;20065;-78
2024/03/06 03:17:42;;;;;;;10.95;6.53;;;10.40;99.90;;;;;;5006891;28;20022;-78
2024/03/06 03:20:11;;;;;;;12.23;6.43;;;10.50;99.90;;;;;;4998755;28;20076;-78
2024/03/06 03:22:40;;;;;;;10.82;5.93;;;10.50;99.90;;;;;;5003101;28;20057;-78
2024/03/06 03:25:13;;;;;;;11.32;6.70;;;10.50;99.90;;;;;;5021847;28;20096;-78
2024/03/06 03:27:43;;;;;;;9.45;5.90;;;10.50;99.90;;;;;;5002792;28;20030;-78
2024/03/06 03:30:12;;;;;;;7.78;5.68;;;10.50;99.90;;;;;;5005487;28;20085;-78
2024/03/06 03:32:38;;;;;;;9.48;5.70;;;10.50;99.90;;;;;;5017999;28;20393;-78
2024/03/06 03:35:08;;;;;;;13.57;5.85;;;10.50;99.90;;;;;;5002485;28;20072;-78
2024/03/06 03:37:34;;;;;;;8.85;5.85;;;10.50;99.90;;;;;;5003474;28;20033;-78
2024/03/06 03:40:00;;;;;;;7.20;5.25;;;10.40;99.90;;;;;;5000563;28;20400;-78
2024/03/06 03:42:25;;;;;;;10.50;5.50;;;10.50;99.90;;;;;;5008725;28;20053;-78
2024/03/06 03:44:51;;;;;;;5.57;4.82;;;10.50;99.90;;;;;;5010060;28;20025;-78
2024/03/06 03:47:17;;;;;;;8.48;5.07;;;10.50;99.90;;;;;;4998870;28;20022;-78
2024/03/06 03:49:43;;;;;;;6.55;4.93;;;10.40;99.90;;;;;;5002671;28;20484;-78
2024/03/06 03:52:09;;;;;;;11.68;5.30;;;10.40;99.90;;;;;;5004224;28;20033;-78
2024/03/06 03:54:35;;;;;;;13.02;5.57;;;10.50;99.90;;;;;;5007091;28;20025;-78
2024/03/06 03:57:01;;;;;;;8.88;5.13;;;10.40;99.90;;;;;;5002989;28;20019;-78
2024/03/06 03:59:26;;;;;;;9.88;5.30;;;10.40;99.90;;;;;;5005575;28;20362;-78
2024/03/06 04:01:52;;;;;;;7.07;5.43;;;10.40;99.90;;;;;;5002492;28;20106;-78
2024/03/06 04:04:18;;;;;;;7.63;5.57;;;10.40;99.90;;;;;;5008434;28;20475;-78
2024/03/06 04:06:43;;;;;;;5.97;4.85;;;10.40;99.90;;;;;;5001879;28;20030;-78
2024/03/06 04:09:14;;;;;;;10.65;5.25;;;10.30;99.90;;;;;;5005795;28;20034;-78
2024/03/06 04:11:40;;;;;;;16.80;5.93;;;10.40;99.90;;;;;;5006089;28;20112;-78
2024/03/06 04:14:06;;;;;;;7.70;4.30;;;10.40;99.90;;;;;;4999619;28;20065;-78
2024/03/06 04:16:33;;;;;;;13.02;5.20;;;10.40;99.90;;;;;;5011073;28;20080;-78
2024/03/06 04:18:59;;;;;;;5.88;4.72;;;10.40;99.90;;;;;;4999319;28;20022;-78
2024/03/06 04:21:24;;;;;;;9.07;4.97;;;10.40;99.90;;;;;;5001451;28;20030;-78
2024/03/06 04:23:50;;;;;;;21.38;5.40;;;10.50;99.90;;;;;;5005377;28;20026;-78
2024/03/06 04:26:17;;;;;;;5.72;4.68;;;10.50;99.90;;;;;;5020855;28;20459;-78
2024/03/06 04:28:43;;;;;;;6.03;4.65;;;10.50;99.90;;;;;;5004021;28;20030;-78
2024/03/06 04:31:09;;;;;;;8.43;5.35;;;10.40;99.90;;;;;;4999749;28;20085;-78
2024/03/06 04:33:35;;;;;;;8.48;4.97;;;10.40;99.90;;;;;;5005553;28;20038;-78
2024/03/06 04:36:02;;;;;;;6.15;4.70;;;10.40;99.90;;;;;;5017041;28;20105;-78
2024/03/06 04:38:29;;;;;;;7.45;4.65;;;10.40;99.90;;;;;;5002107;28;20041;-78
2024/03/06 04:40:55;;;;;;;9.63;5.18;;;10.40;99.90;;;;;;5018778;28;20561;-78
2024/03/06 04:43:20;;;;;;;8.52;5.28;;;10.30;99.90;;;;;;5019945;28;20029;-78
2024/03/06 04:45:46;;;;;;;8.65;5.22;;;10.30;99.90;;;;;;5004721;28;20534;-78
2024/03/06 04:48:12;;;;;;;12.20;5.05;;;10.30;99.90;;;;;;5004616;28;20038;-78
2024/03/06 04:50:37;;;;;;;16.92;5.78;;;10.30;99.90;;;;;;5001678;28;20508;-78
2024/03/06 04:53:06;;;;;;;7.43;4.93;;;10.30;99.90;;;;;;5020206;28;20041;-78
2024/03/06 04:55:31;;;;;;;6.45;4.60;;;10.30;99.90;;;;;;4997592;28;20026;-78
2024/03/06 04:57:57;;;;;;;11.90;5.70;;;10.20;99.90;;;;;;5002536;28;20499;-78
2024/03/06 05:00:23;;;;;;;6.03;4.88;;;10.20;99.90;;;;;;4997715;28;20111;-78
2024/03/06 05:02:49;;;;;;;7.95;4.95;;;10.30;99.90;;;;;;5000157;28;20076;-78
2024/03/06 05:05:14;;;;;;;7.43;5.20;;;10.30;99.90;;;;;;5000128;28;20388;-78
2024/03/06 05:07:43;;;;;;;6.07;4.78;;;10.30;99.90;;;;;;5023606;28;20114;-78
2024/03/06 05:10:09;;;;;;;6.05;4.65;;;10.30;99.90;;;;;;5005658;28;20078;-78
2024/03/06 05:12:35;;;;;;;8.32;4.80;;;10.30;99.90;;;;;;5004203;28;20061;-78
2024/03/06 05:15:00;;;;;;;8.93;5.72;;;10.40;99.90;;;;;;5000658;28;20034;-78
2024/03/06 05:17:26;;;;;;;8.07;5.80;;;10.40;99.90;;;;;;5002887;28;20022;-78
2024/03/06 05:19:52;;;;;;;12.07;6.63;;;10.40;99.90;;;;;;5000451;28;20029;-78
2024/03/06 05:22:18;;;;;;;8.57;5.90;;;10.40;99.90;;;;;;5002295;28;20399;-78
2024/03/06 05:24:44;;;;;;;13.50;6.40;;;10.30;99.90;;;;;;5016984;28;20120;-78
2024/03/06 05:27:13;;;;;;;9.30;6.40;;;10.30;99.90;;;;;;5000480;28;20117;-78
2024/03/06 05:29:39;;;;;;;16.13;7.07;;;10.30;99.90;;;;;;5006098;28;20026;-78
2024/03/06 05:32:07;;;;;;;10.77;6.00;;;10.30;99.90;;;;;;4999187;28;20081;-78
2024/03/06 05:34:33;;;;;;;8.07;5.50;;;10.30;99.90;;;;;;5000016;28;20034;-78
2024/03/06 05:36:59;;;;;;;7.97;5.50;;;10.30;99.90;;;;;;5004095;28;20026;-78
2024/03/06 05:39:25;;;;;;;10.32;5.72;;;10.30;99.90;;;;;;5002688;28;20029;-78
2024/03/06 05:41:54;;;;;;;12.00;5.93;;;10.30;99.90;;;;;;5000436;28;20021;-78
2024/03/06 05:44:20;;;;;;;5.82;4.75;;;10.30;99.90;;;;;;5004559;28;20026;-78
2024/03/06 05:46:47;;;;;;;8.15;5.35;;;10.20;99.90;;;;;;5000624;28;20018;-78
2024/03/06 05:49:13;;;;;;;10.32;5.47;;;10.20;99.90;;;;;;4999996;28;20037;-78
2024/03/06 05:51:39;;;;;;;5.85;5.10;;;10.20;99.90;;;;;;4993660;28;20018;-78
2024/03/06 05:54:08;;;;;;;6.40;4.70;;;10.10;99.90;;;;;;5004307;28;20023;-78
2024/03/06 05:56:34;;;;;;;9.73;5.28;;;10.20;99.90;;;;;;5003905;28;20033;-78
2024/03/06 05:59:04;;;;;;;8.98;5.28;;;10.10;99.90;;;;;;5011603;28;20049;-78
2024/03/06 06:01:30;;;;;;;8.48;5.53;;;10.20;99.90;;;;;;5011899;28;20022;-78
2024/03/06 06:03:56;;;;;;;10.23;5.82;;;10.20;99.90;;;;;;5011539;28;20022;-78
2024/03/06 06:06:22;;;;;;;10.15;5.43;;;10.20;99.90;;;;;;5008255;28;20072;-78
2024/03/06 06:08:48;;;;;;;12.38;6.22;;;10.20;99.90;;;;;;5011662;28;20026;-78
2024/03/06 06:11:14;;;;;;;9.57;5.75;;;10.20;99.90;;;;;;5002837;28;20049;-78
2024/03/06 06:13:40;;;;;;;12.57;5.70;;;10.20;99.90;;;;;;5007770;28;20041;-78
2024/03/06 06:16:06;;;;;;;7.25;5.07;;;10.10;99.90;;;;;;5005671;28;20048;-78
2024/03/06 06:18:32;;;;;;;9.80;4.68;;;10.10;99.90;;;;;;5011138;28;20376;-78
2024/03/06 06:20:59;;;;;;;12.90;4.93;;;10.10;99.90;;;;;;5015183;28;20100;-78
2024/03/06 06:23:25;;;;;;;6.90;5.40;;;10.10;99.90;;;;;;5012715;28;20108;-78
2024/03/06 06:25:51;;;;;;;9.48;5.05;;;10.10;99.90;;;;;;5008453;28;20027;-78
2024/03/06 06:28:17;;;;;;;15.70;5.90;;;10.10;99.90;;;;;;5014728;28;20518;-78
2024/03/06 06:30:43;;;;;;;9.52;5.07;;;10.10;99.90;;;;;;5014983;28;20029;-78
2024/03/06 06:33:09;;;;;;;9.90;4.68;;;10.10;99.90;;;;;;5005259;28;20125;-78
2024/03/06 06:35:35;;;;;;;6.63;4.40;;;10.10;99.90;;;;;;5013445;28;20127;-78
2024/03/06 06:38:02;;;;;;;5.38;3.83;;;10.10;99.90;;;;;;5007692;28;20085;-78
2024/03/06 06:40:30;;;;;;;8.75;4.43;;;10.10;99.90;;;;;;5007728;28;20027;-78
2024/03/06 06:42:56;;;;;;;9.10;4.15;;;10.10;99.90;;;;;;5006387;28;20029;-78
2024/03/06 06:45:22;;;;;;;6.55;4.13;;;10.20;99.90;;;;;;5022001;28;20034;-78
2024/03/06 06:47:48;;;;;;;4.88;3.60;;;10.10;99.90;;;;;;5000813;28;20443;-78
2024/03/06 06:50:15;;;;;;;9.32;4.03;;;10.10;99.90;;;;;;5009178;28;20032;-78
2024/03/06 06:52:41;;;;;;;7.65;4.32;;;10.20;99.90;;;;;;5007144;28;20133;-78
2024/03/06 06:55:11;;;;;;;8.20;5.00;;;10.20;99.90;;;;;;5003803;28;20029;-78
2024/03/06 06:57:37;;;;;;;16.30;5.93;;;10.20;99.90;;;;;;5001563;28;20025;-78
2024/03/06 07:00:10;;;;;;;15.57;6.18;;;10.30;99.90;;;;;;5001764;28;20023;-78
2024/03/06 07:02:38;;;;;;;7.60;5.30;;;10.40;99.90;;;;;;5005943;28;20025;-78
2024/03/06 07:05:04;;;;;;;8.13;5.03;;;10.40;99.90;;;;;;5002695;28;20053;-78
2024/03/06 07:07:30;;;;;;;11.35;5.55;;;10.50;99.90;;;;;;5006135;28;20060;-78
2024/03/06 07:09:56;;;;;;;9.73;4.70;;;10.50;99.90;;;;;;5005105;28;20052;-77
2024/03/06 07:12:21;;;;;;;9.50;4.80;;;10.60;99.90;;;;;;5005493;28;20041;-78
2024/03/06 07:14:47;;;;;;;10.57;5.00;;;10.60;99.90;;;;;;5004153;28;20030;-78
2024/03/06 07:17:13;;;;;;;16.52;8.18;;;10.60;99.90;;;;;;5005211;28;20026;-78
2024/03/06 07:19:39;;;;;;;13.90;6.47;;;10.60;99.90;;;;;;5009594;28;20033;-78
2024/03/06 07:22:05;;;;;;;14.07;5.68;;;10.70;99.90;;;;;;5006419;28;20022;-78
2024/03/06 07:24:31;;;;;;;11.70;5.50;;;10.70;99.90;;;;;;5003585;28;20026;-78
2024/03/06 07:26:56;;;;;;;10.93;5.28;;;10.70;99.90;;;;;;5006993;28;20057;-78
2024/03/06 07:29:22;;;;;;;13.23;6.13;;;10.80;99.90;;;;;;5005005;28;20030;-78
2024/03/06 07:31:48;;;;;;;9.40;5.18;;;10.80;99.90;;;;;;5003631;28;20034;-78
2024/03/06 07:34:17;;;;;;;10.52;5.15;;;10.90;99.90;;;;;;5005920;28;20026;-78
2024/03/06 07:36:43;;;;;;;10.63;5.28;;;10.90;99.90;;;;;;5013952;28;20050;-78
2024/03/06 07:39:09;;;;;;;13.90;5.60;;;10.90;99.90;;;;;;5023539;28;20231;-78
2024/03/06 07:41:35;;;;;;;11.68;4.63;;;11.00;99.90;;;;;;5006506;28;20030;-78
2024/03/06 07:44:01;;;;;;;14.32;4.85;;;11.00;99.90;;;;;;5022267;28;20030;-78
2024/03/06 07:46:27;;;;;;;13.13;5.07;;;11.10;99.90;;;;;;5002295;28;20477;-78
2024/03/06 07:48:52;;;;;;;11.38;4.72;;;11.10;99.90;;;;;;5006387;28;20037;-77
2024/03/06 07:51:19;;;;;;;9.88;4.63;;;11.10;99.90;;;;;;5004853;28;20026;-78
2024/03/06 07:53:45;;;;;;;10.18;4.97;;;11.20;99.90;;;;;;5005573;28;20048;-78
2024/03/06 07:56:13;;;;;;;9.77;4.50;;;11.30;99.90;;;;;;5001155;28;20511;-78
2024/03/06 07:58:39;;;;;;;12.52;4.95;;;11.30;99.90;;;;;;4998481;28;20494;-78
2024/03/06 08:01:07;;;;;;;9.48;4.50;;;11.40;99.90;;;;;;5020398;28;20030;-78
2024/03/06 08:03:33;;;;;;;17.67;5.65;;;11.40;99.90;;;;;;5004504;28;20391;-78
2024/03/06 08:05:59;;;;;;;11.50;4.70;;;11.40;99.90;;;;;;5008398;28;20023;-77
2024/03/06 08:08:25;;;;;;;12.02;5.00;;;11.40;99.90;;;;;;5005062;28;20025;-78
2024/03/06 08:10:51;;;;;;;13.63;5.18;;;11.40;99.90;;;;;;5008489;28;20274;-78
2024/03/06 08:13:19;;;;;;;10.43;5.00;;;11.50;99.90;;;;;;5001099;28;20019;-78
2024/03/06 08:15:45;;;;;;;10.82;4.72;;;11.50;99.90;;;;;;5002216;28;20442;-78
2024/03/06 08:18:11;;;;;;;14.63;4.70;;;11.50;79.70;;;;;;4998177;28;20046;-78
2024/03/06 08:20:37;;;;;;;9.30;3.95;;;11.50;85.00;;;;;;5019905;28;20388;-78
2024/03/06 08:23:03;;;;;;;11.13;4.75;;;11.50;76.80;;;;;;5009159;28;20075;-78
2024/03/06 08:25:32;;;;;;;13.38;4.18;;;11.60;94.00;;;;;;4999857;28;20121;-77
2024/03/06 08:27:59;;;;;;;9.27;3.85;;;11.60;87.00;;;;;;5001496;28;20023;-78
2024/03/06 08:30:24;;;;;;;16.60;4.80;;;11.70;78.00;;;;;;5001404;28;20185;-78
2024/03/06 08:32:51;;;;;;;10.35;4.55;;;11.70;61.60;;;;;;5003584;28;20480;-78
2024/03/06 08:35:19;;;;;;;9.63;4.07;;;11.80;71.30;;;;;;5007837;28;20037;-78
2024/03/06 08:37:45;;;;;;;18.02;4.35;;;11.80;91.80;;;;;;4992990;28;20081;-77
2024/03/06 08:40:14;;;;;;;11.38;4.47;;;11.80;85.60;;;;;;5004330;28;20029;-77
2024/03/06 08:42:47;;;;;;;15.43;4.55;;;11.80;93.20;;;;;;4999520;28;20022;-77
2024/03/06 08:45:14;;;;;;;13.88;4.13;;;11.90;78.70;;;;;;5001136;28;20030;-77
2024/03/06 08:47:40;;;;;;;6.80;3.42;;;12.00;58.90;;;;;;5006556;28;20439;-77
2024/03/06 08:50:07;;;;;;;9.45;3.58;;;12.00;83.50;;;;;;4997133;28;20081;-77
2024/03/06 08:52:36;;;;;;;8.57;3.88;;;12.00;70.90;;;;;;5000753;28;20033;-77
2024/03/06 08:55:08;;;;;;;13.82;3.75;;;12.00;73.70;;;;;;4998403;28;20057;-77
2024/03/06 08:57:35;;;;;;;12.50;4.55;;;12.10;95.10;;;;;;5006195;28;20026;-77
2024/03/06 09:00:02;;;;;;;13.20;4.03;;;12.20;66.30;;;;;;5000610;28;20018;-77
2024/03/06 09:02:28;;;;;;;12.35;3.88;;;12.20;67.50;;;;;;5004362;28;20054;-77
2024/03/06 09:04:54;;;;;;;11.07;4.75;;;12.30;59.00;;;;;;5001823;28;20077;-77
2024/03/06 09:07:23;;;;;;;9.85;4.45;;;12.30;74.30;;;;;;5003398;28;20403;-77
2024/03/06 09:09:51;;;;;;;7.45;3.85;;;12.30;61.10;;;;;;5000871;28;20053;-77
2024/03/06 09:12:17;;;;;;;15.23;3.78;;;12.40;62.10;;;;;;5000990;28;20488;-77
2024/03/06 09:14:46;;;;;;;8.23;3.75;;;12.40;46.20;;;;;;5004678;28;20026;-77
2024/03/06 09:17:14;;;;;;;10.52;3.88;;;12.40;41.40;;;;;;5002656;28;20022;-77
2024/03/06 09:19:41;;;;;;;11.13;4.00;;;12.50;40.40;;;;;;5007075;28;20365;-78
2024/03/06 09:22:10;;;;;;;15.65;3.58;;;12.60;41.20;;;;;;5004597;28;20395;-77
2024/03/06 09:24:38;;;;;;;10.88;3.42;;;12.60;22.00;;;;;;4997900;28;20027;-77
2024/03/06 09:27:04;;;;;;;8.13;3.17;;;12.80;22.90;;;;;;5006128;28;20105;-77
2024/03/06 09:29:30;;;;;;;15.70;4.28;;;12.90;24.50;;;;;;5003836;28;20030;-77
2024/03/06 09:31:56;;;;;;;8.48;3.55;;;13.00;26.60;;;;;;5003987;28;20053;-77
2024/03/06 09:34:23;;;;;;;10.43;3.17;;;13.10;31.40;;;;;;5002839;28;20101;-77
2024/03/06 09:36:49;;;;;;;13.95;3.72;;;13.20;13.80;;;;;;5009531;28;20026;-77
2024/03/06 09:39:20;;;;;;;12.68;3.97;;;13.30;26.00;;;;;;5006513;28;20053;-78
2024/03/06 09:41:50;;;;;;;10.70;4.03;;;13.30;10.60;;;;;;4998717;28;20552;-77
2024/03/06 09:44:16;;;;;;;6.50;2.60;;;13.30;1.00;;;;;;5006256;28;20037;-78
2024/03/06 09:46:46;;;;;;;7.78;3.38;;;13.30;1.00;;;;;;5003715;28;20053;-77
2024/03/06 09:49:15;;;;;;;10.48;3.80;;;13.30;1.00;;;;;;4999222;28;20026;-77
2024/03/06 09:51:45;;;;;;;11.15;4.20;;;13.30;1.00;;;;;;5002778;28;20037;-78
2024/03/06 09:54:14;;;;;;;8.73;3.33;;;13.30;1.00;;;;;;5002170;28;20029;-78
2024/03/06 09:56:43;;;;;;;7.10;3.70;;;13.40;1.00;;;;;;5002460;28;20357;-77
2024/03/06 09:59:09;;;;;;;7.60;2.75;;;13.30;1.00;;;;;;5000524;28;20054;-77
2024/03/06 10:01:40;;;;;;;8.10;2.75;;;13.30;1.00;;;;;;5015765;28;20073;-77
2024/03/06 10:04:25;;;;;;;5.80;3.58;;;13.30;1.00;;;;;;5003015;28;20376;-77
2024/03/06 10:07:02;;;;;;;10.02;2.95;;;13.30;1.00;;;;;;5006806;28;20034;-77
2024/03/06 10:09:29;;;;;;;10.27;4.40;;;13.20;1.00;;;;;;4999624;28;20046;-78
2024/03/06 10:11:58;;;;;;;13.70;3.63;;;13.10;1.00;;;;;;5003285;28;20033;-77
2024/03/06 10:14:23;;;;;;;10.15;3.55;;;13.10;1.00;;;;;;4999582;28;20088;-77
2024/03/06 10:16:56;;;;;;;9.10;3.63;;;13.10;1.00;;;;;;4999692;28;20035;-77
2024/03/06 10:19:24;;;;;;;8.45;2.97;;;13.10;1.00;;;;;;5000146;28;20101;-77
2024/03/06 10:21:53;;;;;;;12.73;3.85;;;13.10;1.00;;;;;;5000236;28;20129;-77
2024/03/06 10:24:26;;;;;;;7.32;3.17;;;13.10;1.00;;;;;;5000109;28;20030;-77
2024/03/06 10:26:54;;;;;;;9.18;3.00;;;13.10;1.00;;;;;;4999677;28;20442;-77
2024/03/06 10:29:22;;;;;;;6.63;3.47;;;13.10;1.00;;;;;;4999722;28;20022;-78
2024/03/06 10:31:51;;;;;;;7.45;3.40;;;13.20;1.00;;;;;;5001827;28;20042;-77
2024/03/06 10:34:17;;;;;;;15.65;5.05;;;13.20;7.50;;;;;;5000341;28;20080;-77
2024/03/06 10:36:44;;;;;;;21.00;4.80;;;13.10;1.00;;;;;;4995546;28;20113;-77
2024/03/06 10:39:14;;;;;;;15.50;6.53;;;13.10;1.00;;;;;;4999579;28;20025;-77
2024/03/06 10:41:41;;;;;;;11.05;5.40;;;13.20;1.00;;;;;;5003237;28;20018;-77
2024/03/06 10:44:15;;;;;;;15.98;5.95;;;13.20;1.00;;;;;;5005546;28;20057;-77
2024/03/06 10:46:47;;;;;;;10.93;3.55;;;13.20;1.00;;;;;;4996213;28;20034;-77
2024/03/06 10:49:14;;;;;;;13.05;5.93;;;13.20;1.00;;;;;;4999519;28;20503;-78
2024/03/06 10:51:43;;;;;;;11.30;5.13;;;13.20;1.00;;;;;;5003185;28;20073;-77
2024/03/06 10:54:10;;;;;;;8.00;3.80;;;13.30;1.00;;;;;;4999432;28;20037;-77
2024/03/06 10:56:39;;;;;;;4.32;2.45;;;13.60;1.00;;;;;;5001205;28;20147;-77
2024/03/06 10:59:06;;;;;;;8.55;2.47;;;13.90;1.00;;;;;;5007572;28;20026;-77
2024/03/06 11:01:32;;;;;;;9.90;3.80;;;13.90;99.90;;;;;;5015413;28;20029;-77
2024/03/06 11:04:03;;;;;;;6.50;2.90;;;13.90;99.90;;;;;;5021471;28;20018;-77
2024/03/06 11:06:29;;;;;;;13.82;2.72;;;14.00;99.90;;;;;;4998972;28;20030;-77
2024/03/06 11:08:55;;;;;;;6.13;2.70;;;14.20;1.00;;;;;;5002501;28;20030;-77
2024/03/06 11:11:24;;;;;;;9.32;3.33;;;14.40;99.90;;;;;;5002554;28;20036;-77
2024/03/06 11:14:10;;;;;;;4.03;2.30;;;14.30;99.90;;;;;;5005933;28;20447;-77
2024/03/06 11:17:02;;;;;;;7.93;2.85;;;14.40;99.90;;;;;;5002934;28;20033;-77
2024/03/06 11:19:32;;;;;;;9.63;3.28;;;14.10;99.90;;;;;;4999882;28;20026;-77
2024/03/06 11:21:59;;;;;;;7.60;2.60;;;14.00;99.90;;;;;;5010598;28;20034;-78
2024/03/06 11:24:34;;;;;;;5.53;2.90;;;13.90;99.90;;;;;;5009236;28;20084;-78
2024/03/06 11:27:05;;;;;;;5.78;3.15;;;13.80;99.90;;;;;;5014159;28;20026;-78
2024/03/06 11:30:10;;;;;;;4.70;2.47;;;13.80;1.00;;;;;;5004305;28;20030;-78
2024/03/06 11:32:38;;;;;;;9.80;3.30;;;14.00;99.90;;;;;;5009652;28;20042;-77
2024/03/06 11:35:06;;;;;;;7.80;2.72;;;14.10;99.90;;;;;;5005278;28;20034;-77
2024/03/06 11:37:36;;;;;;;8.68;2.63;;;14.20;1.00;;;;;;5002562;28;20419;-77
2024/03/06 11:40:08;;;;;;;10.60;2.25;;;14.30;1.00;;;;;;5002690;28;20026;-78
2024/03/06 11:42:35;;;;;;;;;;;14.30;1.00;;;;;;5005700;28;20072;-77
2024/03/06 11:45:13;;;;;;;3.72;2.30;;;14.40;1.00;;;;;;5006190;28;19963;-78
2024/03/06 11:48:02;;;;;;;8.43;2.20;;;14.40;99.90;;;;;;5005012;28;20064;-78
2024/03/06 11:50:30;;;;;;;7.40;2.83;;;14.50;99.90;;;;;;4999408;28;20033;-77
2024/03/06 11:52:55;;;;;;;12.18;2.45;;;14.60;99.90;;;;;;5002584;28;20077;-77
2024/03/06 11:55:22;;;;;;;3.97;2.03;;;14.60;61.10;;;;;;4999161;28;20030;-77
2024/03/06 11:57:48;;;;;;;6.10;2.42;;;14.80;99.90;;;;;;5005664;28;20095;-78
2024/03/06 12:00:14;;;;;;;5.72;2.25;;;14.90;99.90;;;;;;4998128;28;20496;-78
2024/03/06 12:02:41;;;;;;;6.18;2.33;;;15.00;99.90;;;;;;5003144;28;20030;-78
2024/03/06 12:05:10;;;;;;;7.90;2.45;;;15.10;99.90;;;;;;5012317;28;20112;-77
2024/03/06 12:07:46;;;;;;;6.57;2.42;;;15.20;1.00;;;;;;5002616;28;20030;-77
2024/03/06 12:10:11;;;;;;;5.68;2.13;;;15.10;99.90;;;;;;5007795;28;20133;-77
2024/03/06 12:12:37;;;;;;;9.50;2.20;;;14.90;99.90;;;;;;5003451;28;20179;-77
2024/03/06 12:15:09;;;;;;;7.95;2.08;;;14.70;99.90;;;;;;5005073;28;20037;-78
2024/03/06 12:17:46;;;;;;;5.90;1.60;;;14.50;57.00;;;;;;4998394;28;20528;-78
2024/03/06 12:20:15;;;;;;;4.15;1.35;;;14.30;1.00;;;;;;5005790;28;20033;-78
2024/03/06 12:22:51;;;;;;;3.28;1.58;;;14.00;99.90;;;;;;5001871;28;20163;-77
2024/03/06 12:25:24;;;;;;;5.20;1.73;;;13.80;1.00;;;;;;5005449;28;20038;-77
2024/03/06 12:27:50;;;;;;;5.30;1.77;;;13.70;1.00;;;;;;5004262;28;20072;-77
2024/03/06 12:30:23;;;;;;;3.55;2.00;;;13.50;1.00;;;;;;5001756;28;20031;-77
2024/03/06 12:32:58;;;;;;;4.20;1.95;;;13.50;1.00;;;;;;5002892;28;20030;-78
2024/03/06 12:35:27;;;;;;;3.47;1.85;;;13.50;1.00;;;;;;5016512;28;20061;-78
2024/03/06 12:37:53;;;;;;;7.78;2.22;;;13.50;1.00;;;;;;5006498;28;20023;-77
2024/03/06 12:40:19;;;;;;;5.28;2.15;;;13.50;1.00;;;;;;5009248;28;20018;-78
2024/03/06 12:42:45;;;;;;;3.50;2.20;;;13.50;1.00;;;;;;5001640;28;20025;-78
2024/03/06 12:45:15;;;;;;;5.85;2.20;;;13.60;1.00;;;;;;4997521;28;20488;-78
2024/03/06 12:47:41;;;;;;;6.70;2.78;;;13.60;1.00;;;;;;5000005;28;20038;-78